createdAt,value
2022-10-11T00:03:48.820Z,4.20
2022-10-11T00:08:50.692Z,4.00
2022-10-11T00:13:52.328Z,4.00
2022-10-11T00:18:54.011Z,3.50
2022-10-11T00:23:55.773Z,4.40
2022-10-11T00:28:57.478Z,3.90
2022-10-11T00:33:59.849Z,3.70
2022-10-11T00:39:02.009Z,3.80
2022-10-11T00:44:22.824Z,4.40
2022-10-11T00:49:39.607Z,4.80
2022-10-11T00:54:45.709Z,2.30
2022-10-11T00:59:54.058Z,2.60
2022-10-11T01:05:17.835Z,2.60
2022-10-11T01:10:17.573Z,4.10
2022-10-11T01:15:38.219Z,3.50
2022-10-11T01:20:39.792Z,4.70
2022-10-11T01:25:56.926Z,3.10
2022-10-11T01:31:08.549Z,6.10
2022-10-11T01:36:45.757Z,4.10
2022-10-11T01:41:52.563Z,4.70
2022-10-11T01:46:54.584Z,3.70
2022-10-11T01:52:03.464Z,6.00
2022-10-11T01:57:23.150Z,3.10
2022-10-11T02:02:24.783Z,2.50
2022-10-11T02:07:49.444Z,7.10
2022-10-11T02:13:03.497Z,7.20
2022-10-11T02:18:13.267Z,4.40
2022-10-11T02:23:20.669Z,5.70
2022-10-11T02:28:28.983Z,2.20
2022-10-11T02:33:40.204Z,4.30
2022-10-11T02:38:50.649Z,4.10
2022-10-11T02:44:03.365Z,3.90
2022-10-11T02:49:07.436Z,5.40
2022-10-11T02:54:09.258Z,3.50
2022-10-11T02:59:11.037Z,7.00
2022-10-11T03:04:12.725Z,5.00
2022-10-11T03:09:14.408Z,3.30
2022-10-11T03:14:16.071Z,7.90
2022-10-11T03:19:19.419Z,3.10
2022-10-11T03:24:21.371Z,3.70
2022-10-11T03:29:23.080Z,4.00
2022-10-11T03:34:24.960Z,4.40
2022-10-11T03:39:26.672Z,5.80
2022-10-11T03:44:28.401Z,5.20
2022-10-11T03:49:30.219Z,3.70
2022-10-11T03:54:31.894Z,6.50
2022-10-11T03:59:33.546Z,4.80
2022-10-11T04:04:35.250Z,3.70
2022-10-11T04:09:37.040Z,4.00
2022-10-11T04:14:38.716Z,3.50
2022-10-11T04:19:40.426Z,6.00
2022-10-11T04:24:42.227Z,2.80
2022-10-11T04:29:43.892Z,3.70
2022-10-11T04:34:45.655Z,4.40
2022-10-11T04:39:47.419Z,3.50
2022-10-11T04:44:49.182Z,4.70
2022-10-11T04:49:50.871Z,7.20
2022-10-11T04:54:52.756Z,6.00
2022-10-11T04:59:54.417Z,4.50
2022-10-11T05:04:56.326Z,5.70
2022-10-11T05:09:58.181Z,6.90
2022-10-11T05:14:59.945Z,5.30
2022-10-11T05:20:01.694Z,3.50
2022-10-11T05:25:03.629Z,7.10
2022-10-11T05:30:05.863Z,5.80
2022-10-11T05:35:08.072Z,8.80
2022-10-11T05:40:11.114Z,4.80
2022-10-11T05:45:12.808Z,6.60
2022-10-11T05:50:14.527Z,7.90
2022-10-11T05:55:16.257Z,5.90
2022-10-11T06:00:18.012Z,7.00
2022-10-11T06:05:19.738Z,7.10
2022-10-11T06:10:21.417Z,7.70
2022-10-11T06:15:23.418Z,10.60
2022-10-11T06:20:27.044Z,7.80
2022-10-11T06:25:28.898Z,5.40
2022-10-11T06:30:30.623Z,6.30
2022-10-11T06:35:32.306Z,8.30
2022-10-11T06:40:34.061Z,9.00
2022-10-11T06:45:35.781Z,9.40
2022-10-11T06:50:58.504Z,6.40
2022-10-11T06:56:09.944Z,7.10
2022-10-11T07:01:16.688Z,9.60
2022-10-11T07:06:21.794Z,7.30
2022-10-11T07:11:26.968Z,9.30
2022-10-11T07:16:29.038Z,9.90
2022-10-11T07:21:31.940Z,7.20
2022-10-11T07:26:38.915Z,10.20
2022-10-11T07:31:42.603Z,11.20
2022-10-11T07:36:44.300Z,10.90
2022-10-11T07:41:46.233Z,10.40
2022-10-11T07:46:48.045Z,8.90
2022-10-11T07:51:50.159Z,12.00
2022-10-11T07:56:51.811Z,7.00
2022-10-11T08:01:53.481Z,8.40
2022-10-11T08:06:55.184Z,9.50
2022-10-11T08:11:56.911Z,10.70
2022-10-11T08:16:58.948Z,10.80
2022-10-11T08:22:00.709Z,12.70
2022-10-11T08:27:02.437Z,11.30
2022-10-11T08:32:04.269Z,11.50
2022-10-11T08:37:06.191Z,12.40
2022-10-11T08:42:22.366Z,16.30
2022-10-11T08:47:32.887Z,15.00
2022-10-11T08:52:37.670Z,15.30
2022-10-11T08:57:40.904Z,14.00
2022-10-11T09:03:07.392Z,17.10
2022-10-11T09:08:48.001Z,12.40
2022-10-11T09:14:00.921Z,14.30
2022-10-11T09:19:30.420Z,12.50
2022-10-11T09:25:12.121Z,14.80
2022-10-11T09:30:17.676Z,9.30
2022-10-11T09:35:21.826Z,10.50
2022-10-11T09:40:45.077Z,15.70
2022-10-11T09:45:49.432Z,8.90
2022-10-11T09:50:54.637Z,9.70
2022-10-11T09:56:04.024Z,7.80
2022-10-11T10:01:11.643Z,9.00
2022-10-11T10:06:24.853Z,12.30
2022-10-11T10:11:36.922Z,8.30
2022-10-11T10:16:38.649Z,7.70
2022-10-11T10:21:46.772Z,6.30
2022-10-11T10:27:20.997Z,9.30
2022-10-11T10:32:28.256Z,10.10
2022-10-11T10:37:36.368Z,12.30
2022-10-11T10:42:38.097Z,7.90
2022-10-11T10:47:58.210Z,8.90
2022-10-11T10:53:23.989Z,8.20
2022-10-11T10:58:52.462Z,6.40
2022-10-11T11:04:08.061Z,8.00
2022-10-11T11:09:19.184Z,4.40
2022-10-11T11:15:02.519Z,6.30
2022-10-11T11:20:24.823Z,7.30
2022-10-11T11:25:35.444Z,3.30
2022-10-11T11:30:45.972Z,5.10
2022-10-11T11:35:52.838Z,4.70
2022-10-11T11:40:58.845Z,5.60
2022-10-11T11:46:09.611Z,4.70
2022-10-11T11:51:29.005Z,6.20
2022-10-11T11:57:05.257Z,5.20
2022-10-11T12:02:28.083Z,3.00
2022-10-11T12:07:30.189Z,3.90
2022-10-11T12:12:38.069Z,2.50
2022-10-11T12:17:56.040Z,4.30
2022-10-11T12:23:03.514Z,4.80
2022-10-11T12:28:43.156Z,3.70
2022-10-11T12:33:45.246Z,3.90
2022-10-11T12:38:46.971Z,7.00
2022-10-11T12:43:48.636Z,5.10
2022-10-11T12:49:05.562Z,4.20
2022-10-11T12:54:36.875Z,3.30
2022-10-11T12:59:44.676Z,3.80
2022-10-11T13:04:46.425Z,4.90
2022-10-11T13:09:49.184Z,1.70
2022-10-11T13:15:04.009Z,2.70
2022-10-11T13:20:23.866Z,4.40
2022-10-11T13:30:32.520Z,4.30
2022-10-11T13:35:36.569Z,4.70
2022-10-11T13:40:38.711Z,4.30
2022-10-11T13:45:41.435Z,4.30
2022-10-11T13:50:51.109Z,3.60
2022-10-11T13:55:56.066Z,6.10
2022-10-11T14:00:57.723Z,4.70
2022-10-11T14:06:00.555Z,4.30
2022-10-11T14:11:06.293Z,4.40
2022-10-11T14:16:27.666Z,3.40
2022-10-11T14:22:00.248Z,3.70
2022-10-11T14:27:05.491Z,2.50
2022-10-11T14:32:11.065Z,4.50
2022-10-11T14:37:15.172Z,4.70
2022-10-11T14:42:17.601Z,5.10
2022-10-11T14:47:19.514Z,4.60
2022-10-11T14:52:21.166Z,8.40
2022-10-11T14:57:22.816Z,3.10
2022-10-11T15:02:24.471Z,3.50
2022-10-11T15:07:26.151Z,3.30
2022-10-11T15:12:27.793Z,3.20
2022-10-11T15:17:29.507Z,5.00
2022-10-11T15:22:31.207Z,5.30
2022-10-11T15:27:32.865Z,4.30
2022-10-11T15:32:34.541Z,2.80
2022-10-11T15:37:37.423Z,6.70
2022-10-11T15:42:39.493Z,3.30
2022-10-11T15:47:41.387Z,2.70
2022-10-11T15:52:43.070Z,8.30
2022-10-11T15:57:44.773Z,5.90
2022-10-11T16:02:46.500Z,6.30
2022-10-11T16:07:48.595Z,7.40
2022-10-11T16:12:50.376Z,5.00
2022-10-11T16:17:52.115Z,4.10
2022-10-11T16:22:54.749Z,4.30
2022-10-11T16:27:56.455Z,6.40
2022-10-11T16:32:58.663Z,5.10
2022-10-11T16:38:01.417Z,7.70
2022-10-11T16:43:07.411Z,7.80
2022-10-11T16:48:09.775Z,11.30
2022-10-11T16:53:11.503Z,7.80
2022-10-11T16:58:13.277Z,18.00
2022-10-11T17:03:15.044Z,9.50
2022-10-11T17:08:16.919Z,12.10
2022-10-11T17:13:18.661Z,18.20
2022-10-11T17:18:20.332Z,14.60
2022-10-11T17:23:21.965Z,21.90
2022-10-11T17:28:23.937Z,17.30
2022-10-11T17:33:27.332Z,21.20
2022-10-11T17:38:29.058Z,24.60
2022-10-11T17:43:31.925Z,22.30
2022-10-11T17:48:36.734Z,25.70
2022-10-11T17:53:38.932Z,26.50
2022-10-11T17:58:40.684Z,22.30
2022-10-11T18:03:43.448Z,21.20
2022-10-11T18:08:45.123Z,21.80
2022-10-11T18:13:51.847Z,27.30
2022-10-11T18:18:54.870Z,27.70
2022-10-11T18:23:59.780Z,26.90
2022-10-11T18:29:01.491Z,24.50
2022-10-11T18:34:05.096Z,26.50
2022-10-11T18:39:09.476Z,22.80
2022-10-11T18:44:14.183Z,18.00
2022-10-11T18:49:15.963Z,19.60
2022-10-11T18:54:21.132Z,18.10
2022-10-11T18:59:23.310Z,14.80
2022-10-11T19:04:25.097Z,20.40
2022-10-11T19:09:28.467Z,19.30
2022-10-11T19:14:30.461Z,15.90
2022-10-11T19:19:33.358Z,15.70
2022-10-11T19:24:35.187Z,17.00
2022-10-11T19:29:37.918Z,17.50
2022-10-11T19:34:39.621Z,23.70
2022-10-11T19:39:41.395Z,24.20
2022-10-11T19:44:43.080Z,40.80
2022-10-11T19:49:44.792Z,44.70
2022-10-11T19:54:46.516Z,55.00
2022-10-11T19:59:48.217Z,54.40
2022-10-11T20:04:52.810Z,55.20
2022-10-11T20:09:54.952Z,50.90
2022-10-11T20:14:56.625Z,37.20
2022-10-11T20:19:58.303Z,36.00
2022-10-11T20:25:00.108Z,38.20
2022-10-11T20:30:01.924Z,38.40
2022-10-11T20:35:03.895Z,41.20
2022-10-11T20:40:06.246Z,41.00
2022-10-11T20:45:08.282Z,47.30
2022-10-11T20:50:09.924Z,56.80
2022-10-11T20:55:11.608Z,60.00
2022-10-11T21:00:13.911Z,57.10
2022-10-11T21:05:15.635Z,52.80
2022-10-11T21:10:17.443Z,50.00
2022-10-11T21:15:19.152Z,51.00
2022-10-11T21:20:20.864Z,52.70
2022-10-11T21:25:22.627Z,53.70
2022-10-11T21:30:24.263Z,56.30
2022-10-11T21:35:30.362Z,66.90
2022-10-11T21:40:31.998Z,63.10
2022-10-11T21:45:37.339Z,64.30
2022-10-11T21:50:39.010Z,60.70
2022-10-11T21:55:40.750Z,54.90
2022-10-11T22:00:42.333Z,66.70
2022-10-11T22:05:47.455Z,53.40
2022-10-11T22:10:57.620Z,55.40
2022-10-11T22:16:03.687Z,51.00
2022-10-11T22:21:12.026Z,50.10
2022-10-11T22:26:20.325Z,59.00
2022-10-11T22:31:22.371Z,59.00
2022-10-11T22:36:25.077Z,66.80
2022-10-11T22:41:26.828Z,66.50
2022-10-11T22:46:28.721Z,60.20
2022-10-11T22:51:30.490Z,70.60
2022-10-11T22:56:32.195Z,91.10
2022-10-11T23:01:33.916Z,90.70
2022-10-11T23:06:35.595Z,95.30
2022-10-11T23:11:41.916Z,90.50
2022-10-11T23:16:46.814Z,88.80
2022-10-11T23:21:48.565Z,90.40
2022-10-11T23:26:50.251Z,79.40
2022-10-11T23:31:51.969Z,65.80
2022-10-11T23:36:53.625Z,66.10
2022-10-11T23:41:55.503Z,76.30
2022-10-11T23:46:57.292Z,68.10
2022-10-11T23:51:59.050Z,79.00
2022-10-11T23:57:00.770Z,75.60
